sensor_id;sensor_type;location;lat;lon;timestamp;temperature;humidity
4364;DHT22;15337;48.202;12.770;2022-10-16T00:01:09;13.50;99.90
4364;DHT22;15337;48.202;12.770;2022-10-16T00:03:37;13.50;99.90
4364;DHT22;15337;48.202;12.770;2022-10-16T00:06:04;13.40;99.90
4364;DHT22;15337;48.202;12.770;2022-10-16T00:08:31;13.40;99.90
4364;DHT22;15337;48.202;12.770;2022-10-16T00:11:01;13.40;99.90
4364;DHT22;15337;48.202;12.770;2022-10-16T00:13:29;13.40;99.90
4364;DHT22;15337;48.202;12.770;2022-10-16T00:15:57;13.50;99.90
4364;DHT22;15337;48.202;12.770;2022-10-16T00:18:24;13.40;99.90
4364;DHT22;15337;48.202;12.770;2022-10-16T00:20:51;13.40;99.90
4364;DHT22;15337;48.202;12.770;2022-10-16T00:23:18;13.40;99.90
4364;DHT22;15337;48.202;12.770;2022-10-16T00:25:54;13.40;99.90
4364;DHT22;15337;48.202;12.770;2022-10-16T00:28:22;13.40;99.90
4364;DHT22;15337;48.202;12.770;2022-10-16T00:30:49;13.40;99.90
4364;DHT22;15337;48.202;12.770;2022-10-16T00:33:16;13.30;99.90
4364;DHT22;15337;48.202;12.770;2022-10-16T00:35:43;13.30;99.90
4364;DHT22;15337;48.202;12.770;2022-10-16T00:38:10;13.30;99.90
4364;DHT22;15337;48.202;12.770;2022-10-16T00:40:37;13.30;99.90
4364;DHT22;15337;48.202;12.770;2022-10-16T00:43:12;13.30;99.90
4364;DHT22;15337;48.202;12.770;2022-10-16T00:45:40;13.30;99.90
4364;DHT22;15337;48.202;12.770;2022-10-16T00:48:11;13.20;99.90
4364;DHT22;15337;48.202;12.770;2022-10-16T00:50:40;13.20;99.90
4364;DHT22;15337;48.202;12.770;2022-10-16T00:53:09;13.20;99.90
4364;DHT22;15337;48.202;12.770;2022-10-16T00:55:37;13.10;99.90
4364;DHT22;15337;48.202;12.770;2022-10-16T00:58:04;13.10;99.90
4364;DHT22;15337;48.202;12.770;2022-10-16T01:00:31;13.10;99.90
4364;DHT22;15337;48.202;12.770;2022-10-16T01:03:01;13.00;99.90
4364;DHT22;15337;48.202;12.770;2022-10-16T01:05:34;13.00;99.90
4364;DHT22;15337;48.202;12.770;2022-10-16T01:08:12;13.00;99.90
4364;DHT22;15337;48.202;12.770;2022-10-16T01:10:43;12.90;99.90
4364;DHT22;15337;48.202;12.770;2022-10-16T01:13:17;12.90;99.90
4364;DHT22;15337;48.202;12.770;2022-10-16T01:15:47;12.80;99.90
4364;DHT22;15337;48.202;12.770;2022-10-16T01:18:20;12.80;99.90
4364;DHT22;15337;48.202;12.770;2022-10-16T01:20:52;12.80;99.90
4364;DHT22;15337;48.202;12.770;2022-10-16T01:23:29;12.70;99.90
4364;DHT22;15337;48.202;12.770;2022-10-16T01:28:51;12.60;99.90
4364;DHT22;15337;48.202;12.770;2022-10-16T01:31:22;12.60;99.90
4364;DHT22;15337;48.202;12.770;2022-10-16T01:33:57;12.50;99.90
4364;DHT22;15337;48.202;12.770;2022-10-16T01:36:31;12.50;99.90
4364;DHT22;15337;48.202;12.770;2022-10-16T01:39:02;12.40;99.90
4364;DHT22;15337;48.202;12.770;2022-10-16T01:41:33;12.40;99.90
4364;DHT22;15337;48.202;12.770;2022-10-16T01:44:05;12.40;99.90
4364;DHT22;15337;48.202;12.770;2022-10-16T01:46:36;12.40;99.90
4364;DHT22;15337;48.202;12.770;2022-10-16T01:49:05;12.30;99.90
4364;DHT22;15337;48.202;12.770;2022-10-16T01:51:33;12.30;99.90
4364;DHT22;15337;48.202;12.770;2022-10-16T01:54:02;12.30;99.90
4364;DHT22;15337;48.202;12.770;2022-10-16T01:56:31;12.20;99.90
4364;DHT22;15337;48.202;12.770;2022-10-16T01:59:01;12.20;99.90
4364;DHT22;15337;48.202;12.770;2022-10-16T02:01:32;12.20;99.90
4364;DHT22;15337;48.202;12.770;2022-10-16T02:04:04;12.10;99.90
4364;DHT22;15337;48.202;12.770;2022-10-16T02:06:34;12.10;99.90
4364;DHT22;15337;48.202;12.770;2022-10-16T02:09:01;12.10;99.90
4364;DHT22;15337;48.202;12.770;2022-10-16T02:11:28;12.10;99.90
4364;DHT22;15337;48.202;12.770;2022-10-16T02:14:00;12.00;99.90
4364;DHT22;15337;48.202;12.770;2022-10-16T02:16:36;12.00;99.90
4364;DHT22;15337;48.202;12.770;2022-10-16T02:19:04;12.00;99.90
4364;DHT22;15337;48.202;12.770;2022-10-16T02:21:36;12.00;99.90
4364;DHT22;15337;48.202;12.770;2022-10-16T02:24:09;12.00;99.90
4364;DHT22;15337;48.202;12.770;2022-10-16T02:26:49;12.00;99.90
4364;DHT22;15337;48.202;12.770;2022-10-16T02:29:19;12.00;99.90
4364;DHT22;15337;48.202;12.770;2022-10-16T02:31:51;12.00;99.90
4364;DHT22;15337;48.202;12.770;2022-10-16T02:34:20;11.90;99.90
4364;DHT22;15337;48.202;12.770;2022-10-16T02:36:49;11.90;99.90
4364;DHT22;15337;48.202;12.770;2022-10-16T02:39:17;11.90;99.90
4364;DHT22;15337;48.202;12.770;2022-10-16T02:41:44;11.80;99.90
4364;DHT22;15337;48.202;12.770;2022-10-16T02:44:11;11.80;99.90
4364;DHT22;15337;48.202;12.770;2022-10-16T02:46:38;11.80;99.90
4364;DHT22;15337;48.202;12.770;2022-10-16T02:49:06;11.80;99.90
4364;DHT22;15337;48.202;12.770;2022-10-16T02:51:33;11.80;99.90
4364;DHT22;15337;48.202;12.770;2022-10-16T02:54:01;11.80;99.90
4364;DHT22;15337;48.202;12.770;2022-10-16T02:56:28;11.70;99.90
4364;DHT22;15337;48.202;12.770;2022-10-16T02:58:55;11.80;99.90
4364;DHT22;15337;48.202;12.770;2022-10-16T03:01:22;11.70;99.90
4364;DHT22;15337;48.202;12.770;2022-10-16T03:03:49;11.70;99.90
4364;DHT22;15337;48.202;12.770;2022-10-16T03:06:17;11.80;99.90
4364;DHT22;15337;48.202;12.770;2022-10-16T03:08:44;11.70;99.90
4364;DHT22;15337;48.202;12.770;2022-10-16T03:11:11;11.70;99.90
4364;DHT22;15337;48.202;12.770;2022-10-16T03:13:37;11.70;99.90
4364;DHT22;15337;48.202;12.770;2022-10-16T03:16:04;11.70;99.90
4364;DHT22;15337;48.202;12.770;2022-10-16T03:18:31;11.70;99.90
4364;DHT22;15337;48.202;12.770;2022-10-16T03:20:58;11.70;99.90
4364;DHT22;15337;48.202;12.770;2022-10-16T03:23:26;11.70;99.90
4364;DHT22;15337;48.202;12.770;2022-10-16T03:25:53;11.70;99.90
4364;DHT22;15337;48.202;12.770;2022-10-16T03:28:20;11.60;99.90
4364;DHT22;15337;48.202;12.770;2022-10-16T03:30:47;11.60;99.90
4364;DHT22;15337;48.202;12.770;2022-10-16T03:33:14;11.60;99.90
4364;DHT22;15337;48.202;12.770;2022-10-16T03:35:40;11.60;99.90
4364;DHT22;15337;48.202;12.770;2022-10-16T03:38:07;11.50;99.90
4364;DHT22;15337;48.202;12.770;2022-10-16T03:40:36;11.50;99.90
4364;DHT22;15337;48.202;12.770;2022-10-16T03:43:02;11.50;99.90
4364;DHT22;15337;48.202;12.770;2022-10-16T03:45:29;11.50;99.90
4364;DHT22;15337;48.202;12.770;2022-10-16T03:47:56;11.40;99.90
4364;DHT22;15337;48.202;12.770;2022-10-16T03:50:23;11.40;99.90
4364;DHT22;15337;48.202;12.770;2022-10-16T03:52:50;11.40;99.90
4364;DHT22;15337;48.202;12.770;2022-10-16T03:55:17;11.40;99.90
4364;DHT22;15337;48.202;12.770;2022-10-16T03:57:45;11.30;99.90
4364;DHT22;15337;48.202;12.770;2022-10-16T04:00:12;11.30;99.90
4364;DHT22;15337;48.202;12.770;2022-10-16T04:02:40;11.30;99.90
4364;DHT22;15337;48.202;12.770;2022-10-16T04:05:07;11.30;99.90
4364;DHT22;15337;48.202;12.770;2022-10-16T04:07:34;11.20;99.90
4364;DHT22;15337;48.202;12.770;2022-10-16T04:10:01;11.10;99.90
4364;DHT22;15337;48.202;12.770;2022-10-16T04:12:28;11.10;99.90
4364;DHT22;15337;48.202;12.770;2022-10-16T04:14:56;11.10;99.90
4364;DHT22;15337;48.202;12.770;2022-10-16T04:17:23;11.10;99.90
4364;DHT22;15337;48.202;12.770;2022-10-16T04:19:50;11.10;99.90
4364;DHT22;15337;48.202;12.770;2022-10-16T04:22:17;11.10;99.90
4364;DHT22;15337;48.202;12.770;2022-10-16T04:24:44;11.00;99.90
4364;DHT22;15337;48.202;12.770;2022-10-16T04:27:10;11.00;99.90
4364;DHT22;15337;48.202;12.770;2022-10-16T04:29:37;11.00;99.90
4364;DHT22;15337;48.202;12.770;2022-10-16T04:32:08;11.00;99.90
4364;DHT22;15337;48.202;12.770;2022-10-16T04:34:35;11.00;99.90
4364;DHT22;15337;48.202;12.770;2022-10-16T04:37:03;10.90;99.90
4364;DHT22;15337;48.202;12.770;2022-10-16T04:39:30;10.90;99.90
4364;DHT22;15337;48.202;12.770;2022-10-16T04:41:57;10.90;99.90
4364;DHT22;15337;48.202;12.770;2022-10-16T04:44:24;10.90;99.90
4364;DHT22;15337;48.202;12.770;2022-10-16T04:46:51;10.90;99.90
4364;DHT22;15337;48.202;12.770;2022-10-16T04:49:19;10.80;99.90
4364;DHT22;15337;48.202;12.770;2022-10-16T04:51:46;10.80;99.90
4364;DHT22;15337;48.202;12.770;2022-10-16T04:54:13;10.80;99.90
4364;DHT22;15337;48.202;12.770;2022-10-16T04:56:40;10.80;99.90
4364;DHT22;15337;48.202;12.770;2022-10-16T04:59:12;10.80;99.90
4364;DHT22;15337;48.202;12.770;2022-10-16T05:01:39;10.70;99.90
4364;DHT22;15337;48.202;12.770;2022-10-16T05:04:06;10.70;99.90
4364;DHT22;15337;48.202;12.770;2022-10-16T05:06:34;10.70;99.90
4364;DHT22;15337;48.202;12.770;2022-10-16T05:09:01;10.70;99.90
4364;DHT22;15337;48.202;12.770;2022-10-16T05:11:28;10.60;99.90
4364;DHT22;15337;48.202;12.770;2022-10-16T05:13:54;10.60;99.90
4364;DHT22;15337;48.202;12.770;2022-10-16T05:16:21;10.50;99.90
4364;DHT22;15337;48.202;12.770;2022-10-16T05:18:48;10.50;99.90
4364;DHT22;15337;48.202;12.770;2022-10-16T05:21:15;10.50;99.90
4364;DHT22;15337;48.202;12.770;2022-10-16T05:23:44;10.50;99.90
4364;DHT22;15337;48.202;12.770;2022-10-16T05:26:11;10.40;99.90
4364;DHT22;15337;48.202;12.770;2022-10-16T05:28:38;10.40;99.90
4364;DHT22;15337;48.202;12.770;2022-10-16T05:31:05;10.40;99.90
4364;DHT22;15337;48.202;12.770;2022-10-16T05:33:32;10.40;99.90
4364;DHT22;15337;48.202;12.770;2022-10-16T05:36:01;10.40;99.90
4364;DHT22;15337;48.202;12.770;2022-10-16T05:38:29;10.40;99.90
4364;DHT22;15337;48.202;12.770;2022-10-16T05:40:57;10.30;99.90
4364;DHT22;15337;48.202;12.770;2022-10-16T05:43:24;10.30;99.90
4364;DHT22;15337;48.202;12.770;2022-10-16T05:45:55;10.30;99.90
4364;DHT22;15337;48.202;12.770;2022-10-16T05:48:22;10.30;99.90
4364;DHT22;15337;48.202;12.770;2022-10-16T05:50:55;10.30;99.90
4364;DHT22;15337;48.202;12.770;2022-10-16T05:53:22;10.30;99.90
4364;DHT22;15337;48.202;12.770;2022-10-16T05:55:52;10.30;99.90
4364;DHT22;15337;48.202;12.770;2022-10-16T05:58:20;10.40;99.90
4364;DHT22;15337;48.202;12.770;2022-10-16T06:00:53;10.40;99.90
4364;DHT22;15337;48.202;12.770;2022-10-16T06:03:20;10.50;99.90
4364;DHT22;15337;48.202;12.770;2022-10-16T06:05:47;10.50;99.90
4364;DHT22;15337;48.202;12.770;2022-10-16T06:08:14;10.60;99.90
4364;DHT22;15337;48.202;12.770;2022-10-16T06:10:41;10.60;99.90
4364;DHT22;15337;48.202;12.770;2022-10-16T06:13:09;10.70;99.90
4364;DHT22;15337;48.202;12.770;2022-10-16T06:15:37;10.70;99.90
4364;DHT22;15337;48.202;12.770;2022-10-16T06:18:04;10.80;99.90
4364;DHT22;15337;48.202;12.770;2022-10-16T06:20:31;10.90;99.90
4364;DHT22;15337;48.202;12.770;2022-10-16T06:22:58;11.00;99.90
4364;DHT22;15337;48.202;12.770;2022-10-16T06:25:25;11.20;99.90
4364;DHT22;15337;48.202;12.770;2022-10-16T06:27:52;11.30;99.90
4364;DHT22;15337;48.202;12.770;2022-10-16T06:30:19;11.40;99.90
4364;DHT22;15337;48.202;12.770;2022-10-16T06:32:47;11.50;99.90
4364;DHT22;15337;48.202;12.770;2022-10-16T06:35:14;11.70;99.90
4364;DHT22;15337;48.202;12.770;2022-10-16T06:37:41;11.80;99.90
4364;DHT22;15337;48.202;12.770;2022-10-16T06:40:08;11.90;99.90
4364;DHT22;15337;48.202;12.770;2022-10-16T06:42:35;12.00;99.90
4364;DHT22;15337;48.202;12.770;2022-10-16T06:45:02;12.20;99.90
4364;DHT22;15337;48.202;12.770;2022-10-16T06:47:29;12.30;99.90
4364;DHT22;15337;48.202;12.770;2022-10-16T06:49:57;12.40;99.90
4364;DHT22;15337;48.202;12.770;2022-10-16T06:52:24;12.50;99.90
4364;DHT22;15337;48.202;12.770;2022-10-16T06:54:51;12.60;99.90
4364;DHT22;15337;48.202;12.770;2022-10-16T06:57:18;12.80;99.90
4364;DHT22;15337;48.202;12.770;2022-10-16T06:59:44;12.80;99.90
4364;DHT22;15337;48.202;12.770;2022-10-16T07:02:11;13.00;99.90
4364;DHT22;15337;48.202;12.770;2022-10-16T07:04:38;13.20;99.90
4364;DHT22;15337;48.202;12.770;2022-10-16T07:07:06;13.50;99.90
4364;DHT22;15337;48.202;12.770;2022-10-16T07:09:33;13.80;99.90
4364;DHT22;15337;48.202;12.770;2022-10-16T07:12:00;14.00;99.90
4364;DHT22;15337;48.202;12.770;2022-10-16T07:14:27;14.20;99.90
4364;DHT22;15337;48.202;12.770;2022-10-16T07:16:55;14.50;99.90
4364;DHT22;15337;48.202;12.770;2022-10-16T07:19:22;14.80;99.90
4364;DHT22;15337;48.202;12.770;2022-10-16T07:21:50;15.00;99.90
4364;DHT22;15337;48.202;12.770;2022-10-16T07:24:18;15.10;99.90
4364;DHT22;15337;48.202;12.770;2022-10-16T07:26:45;15.20;99.90
4364;DHT22;15337;48.202;12.770;2022-10-16T07:29:14;15.20;99.90
4364;DHT22;15337;48.202;12.770;2022-10-16T07:31:41;15.20;99.90
4364;DHT22;15337;48.202;12.770;2022-10-16T07:34:09;15.30;99.90
4364;DHT22;15337;48.202;12.770;2022-10-16T07:36:37;15.30;99.90
4364;DHT22;15337;48.202;12.770;2022-10-16T07:39:03;15.40;99.90
4364;DHT22;15337;48.202;12.770;2022-10-16T07:41:32;15.40;99.90
4364;DHT22;15337;48.202;12.770;2022-10-16T07:44:02;15.40;99.90
4364;DHT22;15337;48.202;12.770;2022-10-16T07:46:30;15.50;99.90
4364;DHT22;15337;48.202;12.770;2022-10-16T07:48:59;15.50;99.90
4364;DHT22;15337;48.202;12.770;2022-10-16T07:51:26;15.60;99.90
4364;DHT22;15337;48.202;12.770;2022-10-16T07:53:53;15.70;99.90
4364;DHT22;15337;48.202;12.770;2022-10-16T07:56:21;15.70;99.90
4364;DHT22;15337;48.202;12.770;2022-10-16T07:58:50;15.80;99.90
4364;DHT22;15337;48.202;12.770;2022-10-16T08:01:18;15.90;99.90
4364;DHT22;15337;48.202;12.770;2022-10-16T08:03:46;16.00;99.90
4364;DHT22;15337;48.202;12.770;2022-10-16T08:06:14;16.10;99.90
4364;DHT22;15337;48.202;12.770;2022-10-16T08:08:41;16.20;99.90
4364;DHT22;15337;48.202;12.770;2022-10-16T08:11:08;16.30;99.90
4364;DHT22;15337;48.202;12.770;2022-10-16T08:13:35;16.40;99.90
4364;DHT22;15337;48.202;12.770;2022-10-16T08:16:04;16.50;99.90
4364;DHT22;15337;48.202;12.770;2022-10-16T08:18:33;16.70;99.90
4364;DHT22;15337;48.202;12.770;2022-10-16T08:21:00;16.70;99.90
4364;DHT22;15337;48.202;12.770;2022-10-16T08:23:28;16.90;99.90
4364;DHT22;15337;48.202;12.770;2022-10-16T08:25:55;17.00;99.90
4364;DHT22;15337;48.202;12.770;2022-10-16T08:28:23;17.00;99.90
4364;DHT22;15337;48.202;12.770;2022-10-16T08:30:50;17.10;99.90
4364;DHT22;15337;48.202;12.770;2022-10-16T08:33:18;17.20;99.90
4364;DHT22;15337;48.202;12.770;2022-10-16T08:35:50;17.30;99.90
4364;DHT22;15337;48.202;12.770;2022-10-16T08:38:18;17.40;99.90
4364;DHT22;15337;48.202;12.770;2022-10-16T08:40:45;17.50;99.90
4364;DHT22;15337;48.202;12.770;2022-10-16T08:43:24;17.60;99.90
4364;DHT22;15337;48.202;12.770;2022-10-16T08:46:18;17.60;99.90
4364;DHT22;15337;48.202;12.770;2022-10-16T08:48:50;17.70;99.90
4364;DHT22;15337;48.202;12.770;2022-10-16T08:51:21;17.70;99.90
4364;DHT22;15337;48.202;12.770;2022-10-16T08:53:52;17.80;99.90
4364;DHT22;15337;48.202;12.770;2022-10-16T08:56:20;17.90;99.90
4364;DHT22;15337;48.202;12.770;2022-10-16T08:58:47;18.10;99.90
4364;DHT22;15337;48.202;12.770;2022-10-16T09:01:15;18.30;99.90
4364;DHT22;15337;48.202;12.770;2022-10-16T09:03:59;18.50;99.90
4364;DHT22;15337;48.202;12.770;2022-10-16T09:06:39;18.60;99.90
4364;DHT22;15337;48.202;12.770;2022-10-16T09:09:34;18.60;99.90
4364;DHT22;15337;48.202;12.770;2022-10-16T09:12:11;18.60;99.90
4364;DHT22;15337;48.202;12.770;2022-10-16T09:14:49;18.60;99.90
4364;DHT22;15337;48.202;12.770;2022-10-16T09:17:32;18.70;99.90
4364;DHT22;15337;48.202;12.770;2022-10-16T09:20:27;18.70;99.90
4364;DHT22;15337;48.202;12.770;2022-10-16T09:23:08;18.80;99.90
4364;DHT22;15337;48.202;12.770;2022-10-16T09:25:39;18.90;99.90
4364;DHT22;15337;48.202;12.770;2022-10-16T09:28:08;19.00;99.90
4364;DHT22;15337;48.202;12.770;2022-10-16T09:30:36;19.00;99.90
4364;DHT22;15337;48.202;12.770;2022-10-16T09:33:04;19.10;99.90
4364;DHT22;15337;48.202;12.770;2022-10-16T09:35:36;19.20;99.90
4364;DHT22;15337;48.202;12.770;2022-10-16T09:38:04;19.30;99.90
4364;DHT22;15337;48.202;12.770;2022-10-16T09:40:33;19.50;99.90
4364;DHT22;15337;48.202;12.770;2022-10-16T09:43:16;19.60;99.90
4364;DHT22;15337;48.202;12.770;2022-10-16T09:45:56;19.80;99.90
4364;DHT22;15337;48.202;12.770;2022-10-16T09:48:26;19.90;99.90
4364;DHT22;15337;48.202;12.770;2022-10-16T09:50:59;19.90;99.90
4364;DHT22;15337;48.202;12.770;2022-10-16T09:53:41;20.10;99.90
4364;DHT22;15337;48.202;12.770;2022-10-16T09:56:10;20.20;99.90
4364;DHT22;15337;48.202;12.770;2022-10-16T09:58:42;20.30;99.90
4364;DHT22;15337;48.202;12.770;2022-10-16T10:01:13;20.40;99.90
4364;DHT22;15337;48.202;12.770;2022-10-16T10:03:41;20.40;99.90
4364;DHT22;15337;48.202;12.770;2022-10-16T10:06:25;20.50;99.90
4364;DHT22;15337;48.202;12.770;2022-10-16T10:08:58;20.70;99.60
4364;DHT22;15337;48.202;12.770;2022-10-16T10:11:55;20.70;96.60
4364;DHT22;15337;48.202;12.770;2022-10-16T10:14:25;20.70;96.80
4364;DHT22;15337;48.202;12.770;2022-10-16T10:17:07;20.70;96.90
4364;DHT22;15337;48.202;12.770;2022-10-16T10:19:39;20.80;95.90
4364;DHT22;15337;48.202;12.770;2022-10-16T10:22:26;20.90;98.70
4364;DHT22;15337;48.202;12.770;2022-10-16T10:25:19;21.00;96.00
4364;DHT22;15337;48.202;12.770;2022-10-16T10:28:04;21.10;97.90
4364;DHT22;15337;48.202;12.770;2022-10-16T10:30:39;21.10;96.70
4364;DHT22;15337;48.202;12.770;2022-10-16T10:33:16;21.20;97.20
4364;DHT22;15337;48.202;12.770;2022-10-16T10:35:49;21.30;97.30
4364;DHT22;15337;48.202;12.770;2022-10-16T10:38:31;21.30;96.60
4364;DHT22;15337;48.202;12.770;2022-10-16T10:43:57;21.40;99.20
4364;DHT22;15337;48.202;12.770;2022-10-16T10:46:34;21.40;99.00
4364;DHT22;15337;48.202;12.770;2022-10-16T10:49:20;21.50;98.30
4364;DHT22;15337;48.202;12.770;2022-10-16T10:51:56;21.60;98.70
4364;DHT22;15337;48.202;12.770;2022-10-16T10:54:32;21.60;98.70
4364;DHT22;15337;48.202;12.770;2022-10-16T10:57:09;21.60;99.40
4364;DHT22;15337;48.202;12.770;2022-10-16T10:59:54;21.60;99.20
4364;DHT22;15337;48.202;12.770;2022-10-16T11:02:33;21.70;99.40
4364;DHT22;15337;48.202;12.770;2022-10-16T11:05:27;21.70;98.50
4364;DHT22;15337;48.202;12.770;2022-10-16T11:07:58;21.80;99.80
4364;DHT22;15337;48.202;12.770;2022-10-16T11:10:30;21.90;98.90
4364;DHT22;15337;48.202;12.770;2022-10-16T11:13:06;21.90;98.50
4364;DHT22;15337;48.202;12.770;2022-10-16T11:15:38;22.00;95.80
4364;DHT22;15337;48.202;12.770;2022-10-16T11:18:11;22.00;97.30
4364;DHT22;15337;48.202;12.770;2022-10-16T11:20:45;22.00;97.70
4364;DHT22;15337;48.202;12.770;2022-10-16T11:23:17;22.00;97.40
4364;DHT22;15337;48.202;12.770;2022-10-16T11:25:49;22.10;97.90
4364;DHT22;15337;48.202;12.770;2022-10-16T11:28:20;22.10;97.20
4364;DHT22;15337;48.202;12.770;2022-10-16T11:30:53;22.20;95.50
4364;DHT22;15337;48.202;12.770;2022-10-16T11:33:28;22.20;97.30
4364;DHT22;15337;48.202;12.770;2022-10-16T11:36:03;22.30;98.50
4364;DHT22;15337;48.202;12.770;2022-10-16T11:38:38;22.30;97.40
4364;DHT22;15337;48.202;12.770;2022-10-16T11:41:12;22.30;96.20
4364;DHT22;15337;48.202;12.770;2022-10-16T11:43:48;22.30;97.50
4364;DHT22;15337;48.202;12.770;2022-10-16T11:46:20;22.40;97.10
4364;DHT22;15337;48.202;12.770;2022-10-16T11:48:51;22.50;97.60
4364;DHT22;15337;48.202;12.770;2022-10-16T11:51:25;22.50;97.60
4364;DHT22;15337;48.202;12.770;2022-10-16T11:54:01;22.50;97.20
4364;DHT22;15337;48.202;12.770;2022-10-16T11:56:30;22.50;96.60
4364;DHT22;15337;48.202;12.770;2022-10-16T11:59:01;22.60;96.30
4364;DHT22;15337;48.202;12.770;2022-10-16T12:01:32;22.60;96.50
4364;DHT22;15337;48.202;12.770;2022-10-16T12:04:18;22.70;95.90
4364;DHT22;15337;48.202;12.770;2022-10-16T12:06:49;22.70;95.30
4364;DHT22;15337;48.202;12.770;2022-10-16T12:09:22;22.70;96.30
4364;DHT22;15337;48.202;12.770;2022-10-16T12:11:53;22.80;97.10
4364;DHT22;15337;48.202;12.770;2022-10-16T12:19:57;22.90;93.70
4364;DHT22;15337;48.202;12.770;2022-10-16T12:22:27;22.90;93.80
4364;DHT22;15337;48.202;12.770;2022-10-16T12:24:54;22.90;93.80
4364;DHT22;15337;48.202;12.770;2022-10-16T12:27:27;22.90;93.20
4364;DHT22;15337;48.202;12.770;2022-10-16T12:29:56;23.00;93.80
4364;DHT22;15337;48.202;12.770;2022-10-16T12:32:28;23.10;91.80
4364;DHT22;15337;48.202;12.770;2022-10-16T12:34:56;23.10;92.20
4364;DHT22;15337;48.202;12.770;2022-10-16T12:37:25;23.20;92.20
4364;DHT22;15337;48.202;12.770;2022-10-16T12:39:54;23.20;93.00
4364;DHT22;15337;48.202;12.770;2022-10-16T12:42:32;23.20;93.10
4364;DHT22;15337;48.202;12.770;2022-10-16T12:45:00;23.30;92.40
4364;DHT22;15337;48.202;12.770;2022-10-16T12:47:37;23.30;91.80
4364;DHT22;15337;48.202;12.770;2022-10-16T12:50:27;23.40;92.10
4364;DHT22;15337;48.202;12.770;2022-10-16T12:52:54;23.50;91.10
4364;DHT22;15337;48.202;12.770;2022-10-16T12:55:22;23.50;89.90
4364;DHT22;15337;48.202;12.770;2022-10-16T12:58:04;23.60;87.90
4364;DHT22;15337;48.202;12.770;2022-10-16T13:00:42;23.60;85.00
4364;DHT22;15337;48.202;12.770;2022-10-16T13:06:19;23.70;80.80
4364;DHT22;15337;48.202;12.770;2022-10-16T13:09:02;23.80;79.80
4364;DHT22;15337;48.202;12.770;2022-10-16T13:14:50;23.80;80.60
4364;DHT22;15337;48.202;12.770;2022-10-16T13:17:26;23.90;80.40
4364;DHT22;15337;48.202;12.770;2022-10-16T13:20:04;24.00;81.30
4364;DHT22;15337;48.202;12.770;2022-10-16T13:22:37;24.10;80.80
4364;DHT22;15337;48.202;12.770;2022-10-16T13:25:18;24.10;80.30
4364;DHT22;15337;48.202;12.770;2022-10-16T13:27:54;24.30;79.80
4364;DHT22;15337;48.202;12.770;2022-10-16T13:30:24;24.20;78.00
4364;DHT22;15337;48.202;12.770;2022-10-16T13:32:58;24.30;76.30
4364;DHT22;15337;48.202;12.770;2022-10-16T13:35:27;24.30;75.20
4364;DHT22;15337;48.202;12.770;2022-10-16T13:38:04;24.30;74.30
4364;DHT22;15337;48.202;12.770;2022-10-16T13:40:31;24.30;74.90
4364;DHT22;15337;48.202;12.770;2022-10-16T13:43:00;24.40;77.30
4364;DHT22;15337;48.202;12.770;2022-10-16T13:45:28;24.50;79.50
4364;DHT22;15337;48.202;12.770;2022-10-16T13:48:03;24.70;79.90
4364;DHT22;15337;48.202;12.770;2022-10-16T13:50:30;24.80;77.30
4364;DHT22;15337;48.202;12.770;2022-10-16T13:53:06;24.80;76.40
4364;DHT22;15337;48.202;12.770;2022-10-16T13:55:33;24.90;71.90
4364;DHT22;15337;48.202;12.770;2022-10-16T13:58:10;25.00;73.20
4364;DHT22;15337;48.202;12.770;2022-10-16T14:00:39;25.00;75.80
4364;DHT22;15337;48.202;12.770;2022-10-16T14:03:13;25.00;78.30
4364;DHT22;15337;48.202;12.770;2022-10-16T14:05:44;24.80;78.60
4364;DHT22;15337;48.202;12.770;2022-10-16T14:08:13;24.70;76.90
4364;DHT22;15337;48.202;12.770;2022-10-16T14:10:40;24.60;78.50
4364;DHT22;15337;48.202;12.770;2022-10-16T14:13:12;24.60;81.10
4364;DHT22;15337;48.202;12.770;2022-10-16T14:15:46;24.50;84.20
4364;DHT22;15337;48.202;12.770;2022-10-16T14:18:19;24.60;86.00
4364;DHT22;15337;48.202;12.770;2022-10-16T14:20:48;24.80;84.90
4364;DHT22;15337;48.202;12.770;2022-10-16T14:23:21;24.90;85.50
4364;DHT22;15337;48.202;12.770;2022-10-16T14:25:48;25.00;86.50
4364;DHT22;15337;48.202;12.770;2022-10-16T14:28:17;25.00;89.00
4364;DHT22;15337;48.202;12.770;2022-10-16T14:30:54;24.90;89.20
4364;DHT22;15337;48.202;12.770;2022-10-16T14:33:23;24.80;90.40
4364;DHT22;15337;48.202;12.770;2022-10-16T14:36:03;24.80;91.40
4364;DHT22;15337;48.202;12.770;2022-10-16T14:38:32;24.60;91.70
4364;DHT22;15337;48.202;12.770;2022-10-16T14:40:59;24.50;92.40
4364;DHT22;15337;48.202;12.770;2022-10-16T14:43:32;24.40;92.90
4364;DHT22;15337;48.202;12.770;2022-10-16T14:46:03;24.40;93.40
4364;DHT22;15337;48.202;12.770;2022-10-16T14:48:30;24.30;94.00
4364;DHT22;15337;48.202;12.770;2022-10-16T14:50:57;24.20;94.20
4364;DHT22;15337;48.202;12.770;2022-10-16T14:53:24;24.20;93.80
4364;DHT22;15337;48.202;12.770;2022-10-16T14:55:51;24.10;93.40
4364;DHT22;15337;48.202;12.770;2022-10-16T14:58:20;24.10;92.80
4364;DHT22;15337;48.202;12.770;2022-10-16T15:00:48;24.10;92.20
4364;DHT22;15337;48.202;12.770;2022-10-16T15:03:16;24.00;91.80
4364;DHT22;15337;48.202;12.770;2022-10-16T15:05:43;24.00;92.60
4364;DHT22;15337;48.202;12.770;2022-10-16T15:08:10;24.00;91.80
4364;DHT22;15337;48.202;12.770;2022-10-16T15:10:40;24.00;91.90
4364;DHT22;15337;48.202;12.770;2022-10-16T15:13:11;23.90;93.40
4364;DHT22;15337;48.202;12.770;2022-10-16T15:15:41;23.80;94.50
4364;DHT22;15337;48.202;12.770;2022-10-16T15:18:09;23.80;96.10
4364;DHT22;15337;48.202;12.770;2022-10-16T15:20:38;23.70;97.10
4364;DHT22;15337;48.202;12.770;2022-10-16T15:23:10;23.60;98.00
4364;DHT22;15337;48.202;12.770;2022-10-16T15:25:42;23.60;98.70
4364;DHT22;15337;48.202;12.770;2022-10-16T15:28:10;23.50;99.40
4364;DHT22;15337;48.202;12.770;2022-10-16T15:30:37;23.40;99.70
4364;DHT22;15337;48.202;12.770;2022-10-16T15:33:10;23.30;99.90
4364;DHT22;15337;48.202;12.770;2022-10-16T15:35:39;23.30;99.90
4364;DHT22;15337;48.202;12.770;2022-10-16T15:38:06;23.20;99.90
4364;DHT22;15337;48.202;12.770;2022-10-16T15:40:32;23.20;99.90
4364;DHT22;15337;48.202;12.770;2022-10-16T15:42:59;23.10;99.90
4364;DHT22;15337;48.202;12.770;2022-10-16T15:45:26;23.10;99.90
4364;DHT22;15337;48.202;12.770;2022-10-16T15:47:53;23.10;99.90
4364;DHT22;15337;48.202;12.770;2022-10-16T15:50:20;23.00;99.90
4364;DHT22;15337;48.202;12.770;2022-10-16T15:52:50;22.90;99.90
4364;DHT22;15337;48.202;12.770;2022-10-16T15:55:17;22.80;99.90
4364;DHT22;15337;48.202;12.770;2022-10-16T15:57:44;22.70;99.90
4364;DHT22;15337;48.202;12.770;2022-10-16T16:00:13;22.60;99.90
4364;DHT22;15337;48.202;12.770;2022-10-16T16:02:41;22.60;99.90
4364;DHT22;15337;48.202;12.770;2022-10-16T16:05:09;22.50;99.90
4364;DHT22;15337;48.202;12.770;2022-10-16T16:07:38;22.40;99.90